Llefia, Spain
Current Conditions -  °F | °C
As of 4:00 AM on Tuesday 27 Jan 2015 (Local Time) from LEBL Reporting Station
Few Clouds Few Clouds  
Wind Chill:   Ceiling: Unl
Heat Index:   Visibility: 6mi
Dew Point:   Wind: 9mph
Humidity: 66%   Direction: 320°NW
Pressure: 30.24"   Gusts: NA
Location:  41.44°N, 2.22°E
Report Text: LEBL 270300Z 32008KT 290V350 9999 FEW040 07/01 Q1024 NOSIG
Loading
Personal Weather Stations






























Interactive Weather Map New forecast layout! Learn more

10-Day Weather Forecast

Advertisements
Track Severe Weather on mobile